Time;durP1;ratioP1;P1;durP2;ratioP2;P2;SDS_P1;SDS_P2;PMS_P1;PMS_P2;Temp;Humidity;BMP_temperature;BMP_pressure;BME280_temperature;BME280_humidity;BME280_pressure;Samples;Min_cycle;Max_cycle;Signal;HPM_P1;HPM_P2
2023/01/05 04:43:17;;;;;;;8.02;3.42;;;;;;;16.85;60.53;101730.34;6182839;22;20149;31
2023/01/05 05:05:24;;;;;;;8.90;3.30;;;;;;;16.83;60.48;101752.88;6201422;22;20484;-81
2023/01/05 05:07:49;;;;;;;9.15;3.30;;;;;;;16.83;60.82;101750.28;6191874;23;20103;-80
2023/01/05 05:10:16;;;;;;;8.90;3.15;;;;;;;16.83;60.53;101753.75;6191706;23;20055;-81
2023/01/05 05:12:42;;;;;;;7.90;3.20;;;;;;;16.84;60.57;101759.81;6192950;23;20051;-81
2023/01/05 05:15:08;;;;;;;7.85;2.97;;;;;;;16.85;60.54;101764.16;6170152;23;20417;-81
2023/01/05 05:17:34;;;;;;;8.98;3.17;;;;;;;16.84;60.63;101763.28;6227762;23;20064;-81
2023/01/05 05:20:01;;;;;;;9.38;3.13;;;;;;;16.85;60.67;101772.84;6188731;23;20027;-82
2023/01/05 05:22:27;;;;;;;9.18;3.47;;;;;;;16.86;60.74;101763.31;6148859;23;20013;-82
2023/01/05 05:24:53;;;;;;;8.40;3.80;;;;;;;16.85;60.61;101778.03;6175991;23;20002;-82
2023/01/05 05:27:19;;;;;;;5.95;2.70;;;;;;;16.85;60.48;101775.44;6169626;23;20009;-80
2023/01/05 05:29:45;;;;;;;7.30;2.85;;;;;;;16.87;60.60;101772.84;6147586;23;20016;-82
2023/01/05 05:32:12;;;;;;;9.05;3.28;;;;;;;16.88;60.63;101773.72;6171382;23;20354;-81
2023/01/05 05:34:38;;;;;;;7.93;3.05;;;;;;;16.88;60.50;101781.53;6135465;23;20009;-81
2023/01/05 05:37:03;;;;;;;8.02;3.22;;;;;;;16.86;60.67;101777.16;6159170;23;20017;-81
2023/01/05 05:39:33;;;;;;;7.03;3.10;;;;;;;16.87;60.64;101780.63;6148237;23;20032;-82
2023/01/05 05:41:59;;;;;;;7.40;3.08;;;;;;;16.86;60.46;101784.97;6144785;23;20010;-82
2023/01/05 05:44:24;;;;;;;8.60;2.83;;;;;;;16.88;60.78;101784.13;6139778;23;20465;-81
2023/01/05 05:46:50;;;;;;;8.30;3.22;;;;;;;16.88;60.67;101789.34;6148244;23;20089;-82
2023/01/05 05:49:20;;;;;;;8.02;3.03;;;;;;;16.88;60.66;101786.72;6150809;23;20005;-81
2023/01/05 05:51:46;;;;;;;7.25;2.85;;;;;;;16.88;60.74;101789.34;6150975;23;20005;-81
2023/01/05 05:54:23;;;;;;;6.57;2.55;;;;;;;16.88;60.86;101787.59;6226471;23;20031;-82
2023/01/05 05:56:57;;;;;;;8.32;3.10;;;;;;;16.88;60.53;101798.00;6206822;23;20104;-82
2023/01/05 05:59:24;;;;;;;6.65;2.47;;;;;;;16.89;60.84;101798.84;6232711;23;19997;-82
2023/01/05 06:01:51;;;;;;;8.15;2.97;;;;;;;16.89;60.53;101797.13;6175536;23;20012;-81
2023/01/05 06:04:17;;;;;;;6.68;2.67;;;;;;;16.89;60.77;101793.66;6223351;23;20001;-81
2023/01/05 06:06:43;;;;;;;8.93;2.95;;;;;;;16.90;60.73;101809.28;6201935;23;19997;-82
2023/01/05 06:09:11;;;;;;;6.72;2.83;;;;;;;16.90;60.74;101822.28;6154765;23;20058;-81
2023/01/05 06:11:37;;;;;;;7.57;3.05;;;;;;;16.90;60.66;101811.88;6167988;23;20012;-81
2023/01/05 06:14:03;;;;;;;6.50;2.67;;;;;;;16.91;60.53;101815.34;6192377;23;20009;-81
2023/01/05 06:16:29;;;;;;;7.93;2.92;;;;;;;16.92;60.80;101820.56;6143337;23;20385;-80
2023/01/05 06:22:16;;;;;;;6.70;2.80;;;;;;;16.93;60.59;101830.09;6193326;23;20016;-81
2023/01/05 06:24:42;;;;;;;7.32;2.88;;;;;;;16.92;60.78;101838.75;6170178;23;20005;-81
2023/01/05 06:27:09;;;;;;;8.50;3.00;;;;;;;16.93;60.75;101847.44;6164949;23;20055;-80
2023/01/05 06:29:35;;;;;;;7.47;3.00;;;;;;;16.94;60.76;101851.75;6163017;23;20009;-80
2023/01/05 06:32:00;;;;;;;6.07;2.42;;;;;;;16.94;60.87;101859.56;6165013;23;20001;-80
2023/01/05 06:55:25;;;;;;;14.73;3.72;;;;;;;17.35;61.49;101865.13;6268056;22;20022;-80
2023/01/05 07:03:58;;;;;;;13.52;3.67;;;;;;;17.38;61.36;101875.56;6197345;22;20056;-80
2023/01/05 07:06:24;;;;;;;11.02;3.15;;;;;;;17.40;61.31;101878.19;6144437;23;20021;-79
2023/01/05 07:09:29;;;;;;;12.18;3.80;;;;;;;17.41;61.40;101875.56;6180001;23;20024;-82
2023/01/05 08:16:26;;;;;;;8.20;3.20;;;;;;;17.61;60.44;101935.59;6200628;22;20020;-81
2023/01/05 08:21:33;;;;;;;9.40;3.00;;;;;;;17.65;60.45;101942.56;6235183;23;20008;-81
2023/01/05 09:40:50;;;;;;;6.72;2.30;;;;;;;17.91;60.13;102032.19;6243050;22;20036;-83
2023/01/05 10:43:23;;;;;;;4.90;2.30;;;;;;;18.09;59.45;102076.59;6181673;22;20323;31
2023/01/05 10:48:33;;;;;;;5.50;2.38;;;;;;;18.10;59.64;102075.75;6172930;23;20000;-83
2023/01/05 11:00:02;;;;;;;4.90;2.10;;;;;;;18.14;59.72;102068.81;6148046;23;19955;31
2023/01/05 11:05:41;;;;;;;6.28;2.00;;;;;;;18.13;59.76;102070.56;6186124;22;20024;-80
2023/01/05 13:09:10;;;;;;;8.57;2.85;;;;;;;17.72;60.65;102034.59;6202871;22;20078;-87
2023/01/05 13:11:54;;;;;;;9.00;3.10;;;;;;;17.72;60.55;102036.34;6215431;23;20016;-87
2023/01/05 13:14:24;;;;;;;11.48;3.28;;;;;;;17.69;60.61;102025.03;6221208;23;20044;-87
2023/01/05 13:16:58;;;;;;;9.45;3.38;;;;;;;17.69;60.21;102032.84;6233843;23;20008;-85
2023/01/05 13:19:27;;;;;;;;;;;;;;;17.71;60.36;102030.25;6199583;23;20000;-88
2023/01/05 13:21:53;;;;;;;12.48;3.13;;;;;;;17.73;60.45;102035.50;6221211;23;19935;-89
2023/01/05 13:24:27;;;;;;;12.55;3.17;;;;;;;17.76;60.41;102046.78;6227377;23;20020;-92
2023/01/05 13:26:53;;;;;;;;;;;;;;;17.80;60.49;102035.53;6208635;23;20005;-92
2023/01/05 13:32:36;;;;;;;15.13;3.17;;;;;;;17.73;60.47;102038.09;6226253;22;20052;-91
2023/01/05 13:39:03;;;;;;;10.15;3.25;;;;;;;17.69;60.62;102029.38;6230498;23;20444;-92
2023/01/05 13:45:46;;;;;;;10.10;3.30;;;;;;;17.65;60.72;102038.00;6170082;23;20071;-91
2023/01/05 13:58:45;;;;;;;12.55;2.95;;;;;;;17.61;60.66;102025.81;6235022;23;20345;-92
2023/01/05 14:19:00;;;;;;;8.25;2.92;;;;;;;17.59;60.39;102015.38;6239548;23;20043;-91
2023/01/05 14:22:03;;;;;;;8.13;3.00;;;;;;;17.57;60.54;102009.31;6059703;23;20432;-86
2023/01/05 14:28:30;;;;;;;7.40;2.60;;;;;;;17.57;60.48;102016.22;6145230;23;20057;-86
2023/01/05 14:38:17;;;;;;;8.48;3.17;;;;;;;17.54;60.54;102013.63;6143219;23;20447;-87
2023/01/05 15:06:09;;;;;;;10.90;3.28;;;;;;;17.19;64.50;102006.34;6233532;22;20021;-86
2023/01/05 15:09:15;;;;;;;14.32;3.17;;;;;;;17.12;64.91;102001.94;6225407;23;20433;-79
2023/01/05 15:11:47;;;;;;;10.73;3.38;;;;;;;17.01;64.76;102000.06;6190923;23;20322;-80
2023/01/05 15:17:35;;;;;;;16.58;4.10;;;;;;;16.95;65.11;102010.41;6235614;22;20024;-89
2023/01/05 15:56:48;;;;;;;10.70;3.20;;;;;;;16.72;67.15;101959.81;6213261;22;20096;-90
2023/01/05 16:20:28;;;;;;;9.13;2.92;;;;;;;16.69;68.56;101957.19;6239221;22;20024;-90
2023/01/05 16:28:16;;;;;;;8.85;3.08;;;;;;;16.71;68.04;101955.47;6214887;22;20070;-79
2023/01/05 16:30:43;;;;;;;7.75;2.90;;;;;;;16.73;67.11;101949.44;6220633;23;20039;-81
2023/01/05 16:36:31;;;;;;;7.70;2.97;;;;;;;16.69;67.83;101941.59;6231855;23;20092;-84
2023/01/05 16:55:28;;;;;;;;;;;;;;;16.81;71.70;101933.94;6215441;22;19923;-81
2023/01/05 17:04:20;;;;;;;8.45;3.03;;;;;;;16.65;71.31;101928.53;6219833;22;20031;-82
2023/01/05 17:07:07;;;;;;;9.48;2.83;;;;;;;16.64;72.07;101928.56;6202279;23;20028;-81
2023/01/05 17:09:33;;;;;;;10.65;3.22;;;;;;;16.61;70.16;101926.78;6204225;23;19989;-81
2023/01/05 17:11:59;;;;;;;6.47;2.75;;;;;;;16.59;68.95;101923.31;6203818;23;20009;-83
2023/01/05 17:14:27;;;;;;;9.82;3.38;;;;;;;16.61;70.94;101925.91;6197560;23;20008;-81
2023/01/05 17:16:53;;;;;;;9.65;3.17;;;;;;;16.59;68.34;101925.91;6219770;23;20001;-82
2023/01/05 17:19:20;;;;;;;8.68;2.60;;;;;;;16.58;70.50;101921.53;6194708;23;20328;-82
2023/01/05 17:48:49;;;;;;;8.48;3.38;;;;;;;16.53;69.06;101899.84;6196424;22;20334;-87
2023/01/05 18:09:38;;;;;;;7.90;2.90;;;;;;;16.51;70.36;101879.91;6195504;22;20036;-84
2023/01/05 18:25:12;;;;;;;8.52;3.15;;;;;;;15.99;80.71;101870.59;6205423;22;20087;-80
2023/01/05 18:27:38;;;;;;;12.45;4.00;;;;;;;15.76;82.71;101866.78;6199245;23;20064;-81
2023/01/05 18:30:05;;;;;;;9.90;3.80;;;;;;;15.70;83.59;101854.56;6204469;23;20021;-77
2023/01/05 18:32:39;;;;;;;12.27;4.35;;;;;;;15.68;85.10;101864.06;6206661;23;20007;-82
2023/01/05 18:35:10;;;;;;;11.38;4.25;;;;;;;15.71;85.78;101861.53;6205383;23;20059;-83
2023/01/05 18:37:37;;;;;;;10.55;3.83;;;;;;;15.75;86.11;101855.53;6173296;23;20005;-79
2023/01/05 18:40:04;;;;;;;11.52;4.13;;;;;;;15.77;86.33;101852.97;6208016;23;20001;-82
2023/01/05 18:42:30;;;;;;;13.80;4.10;;;;;;;15.76;86.76;101853.81;6188514;23;20009;-84
2023/01/05 18:44:56;;;;;;;59.03;17.60;;;;;;;15.73;85.67;101856.38;6196945;23;20005;-79
2023/01/05 18:47:21;;;;;;;42.95;13.13;;;;;;;15.73;86.16;101854.63;6200056;23;20005;-81
2023/01/05 18:49:47;;;;;;;41.72;11.88;;;;;;;15.71;86.35;101861.53;6171876;23;20009;-80
2023/01/05 18:52:13;;;;;;;33.10;10.98;;;;;;;15.71;86.26;101858.03;6211134;23;20067;-82
2023/01/05 18:54:53;;;;;;;29.90;9.27;;;;;;;15.70;86.19;101862.38;6211738;23;20000;-84
2023/01/05 19:06:13;;;;;;;27.70;7.93;;;;;;;15.70;86.39;101857.16;6198989;22;20389;-82
2023/01/05 19:12:02;;;;;;;26.75;7.95;;;;;;;15.77;86.87;101851.25;6209629;23;20016;-84
2023/01/05 19:14:31;;;;;;;20.60;7.75;;;;;;;15.79;86.66;101857.34;6186180;23;19989;-85
2023/01/05 19:20:25;;;;;;;23.02;7.47;;;;;;;15.80;86.90;101853.88;6207904;23;20055;-84
2023/01/05 19:22:51;;;;;;;26.25;8.27;;;;;;;15.83;87.22;101851.34;6193489;23;19996;-83
2023/01/05 19:25:19;;;;;;;22.58;7.75;;;;;;;15.90;88.08;101859.22;6188209;23;20445;-80
2023/01/05 19:27:45;;;;;;;21.85;7.03;;;;;;;15.86;87.69;101849.63;6201478;23;20020;-81
2023/01/05 19:30:11;;;;;;;21.08;7.35;;;;;;;15.84;88.06;101855.66;6168688;23;20013;-83
2023/01/05 19:32:36;;;;;;;20.35;7.00;;;;;;;15.80;87.77;101853.00;6171912;23;20079;-82
2023/01/05 19:35:06;;;;;;;18.30;6.88;;;;;;;15.81;88.03;101849.56;6196264;23;20004;-83
2023/01/05 19:37:37;;;;;;;20.55;7.05;;;;;;;15.77;87.87;101852.97;6197451;23;20035;-83
2023/01/05 19:40:02;;;;;;;19.73;6.75;;;;;;;15.77;87.57;101846.06;6175915;23;20028;-82
2023/01/05 19:42:30;;;;;;;17.42;6.25;;;;;;;15.77;87.86;101842.59;6176381;23;20006;-83
2023/01/05 19:44:55;;;;;;;15.10;6.18;;;;;;;15.74;87.69;101851.22;6199951;23;20005;-82
2023/01/05 19:47:21;;;;;;;18.75;6.65;;;;;;;15.74;87.90;101840.84;6183711;23;20016;-82
2023/01/05 19:49:49;;;;;;;19.42;6.53;;;;;;;15.74;87.93;101842.53;6161962;23;19997;-83
2023/01/05 19:52:15;;;;;;;15.73;6.13;;;;;;;15.73;88.06;101838.22;6180654;23;20036;-85
2023/01/05 19:54:40;;;;;;;15.65;6.32;;;;;;;15.72;88.20;101837.34;6180430;23;20013;-83
2023/01/05 19:57:06;;;;;;;17.95;6.13;;;;;;;15.71;88.17;101840.78;6204315;23;20004;-83
2023/01/05 19:59:50;;;;;;;16.77;5.72;;;;;;;15.71;87.87;101832.97;6207698;23;19985;-83
2023/01/05 20:02:15;;;;;;;16.35;6.40;;;;;;;15.70;88.37;101835.50;6180109;23;20012;-85
2023/01/05 20:04:44;;;;;;;15.85;6.28;;;;;;;15.71;88.44;101838.19;6205044;23;20005;-84
2023/01/05 20:07:09;;;;;;;13.75;5.43;;;;;;;15.69;88.39;101832.06;6172831;23;20017;-85
2023/01/05 20:09:35;;;;;;;15.38;5.78;;;;;;;15.69;88.25;101824.28;6167155;23;20016;-86
2023/01/05 20:12:10;;;;;;;14.07;6.25;;;;;;;15.67;88.36;101828.56;6179349;23;20009;-83
2023/01/05 20:14:45;;;;;;;18.25;6.10;;;;;;;15.68;88.35;101827.72;6184287;23;20005;-84
2023/01/05 20:17:12;;;;;;;18.48;6.07;;;;;;;15.68;88.48;101824.25;6182939;23;20048;-84
2023/01/05 20:19:40;;;;;;;15.32;5.80;;;;;;;15.67;88.65;101819.91;6157429;23;19997;-84
2023/01/05 20:22:07;;;;;;;13.27;5.95;;;;;;;15.66;88.56;101823.34;6208538;23;20008;-84
2023/01/05 20:24:45;;;;;;;14.10;5.82;;;;;;;15.65;88.81;101812.09;6183498;23;20005;-84
2023/01/05 20:27:14;;;;;;;16.95;5.63;;;;;;;15.66;88.70;101819.06;6208984;23;20021;-83
2023/01/05 20:29:40;;;;;;;15.25;5.57;;;;;;;15.64;88.66;101812.97;6209890;23;20008;-84
2023/01/05 20:32:14;;;;;;;13.93;4.85;;;;;;;15.64;88.67;101818.16;6181329;23;20009;-85
2023/01/05 20:34:46;;;;;;;17.65;6.13;;;;;;;15.64;88.84;101807.78;6184351;23;20009;-84
2023/01/05 20:37:17;;;;;;;12.02;5.57;;;;;;;15.64;89.07;101807.78;6186309;23;19989;-84
2023/01/05 20:39:44;;;;;;;11.20;4.93;;;;;;;15.63;88.93;101812.09;6183315;23;19997;-85
2023/01/05 20:42:12;;;;;;;16.00;5.03;;;;;;;15.62;88.79;101809.47;6157700;23;20032;-85
2023/01/05 20:44:42;;;;;;;12.80;5.40;;;;;;;15.62;88.84;101804.28;6183161;23;20080;-85
2023/01/05 20:47:57;;;;;;;14.48;4.93;;;;;;;15.63;89.18;101799.13;6184084;23;20009;-83
2023/01/05 20:50:51;;;;;;;13.55;4.85;;;;;;;15.60;89.06;101795.59;6108190;23;20019;-85
2023/01/05 20:53:17;;;;;;;14.38;5.20;;;;;;;15.63;89.21;101801.72;6064564;23;20039;-84
2023/01/05 20:55:45;;;;;;;10.60;4.65;;;;;;;15.62;89.37;101801.69;6021554;23;20015;-84
2023/01/05 20:58:11;;;;;;;14.85;5.30;;;;;;;15.62;89.43;101809.47;6092556;23;20017;-84
2023/01/05 21:00:39;;;;;;;13.93;4.95;;;;;;;15.58;88.96;101795.56;6070736;23;20031;-84
2023/01/05 21:03:06;;;;;;;14.05;5.38;;;;;;;15.62;89.55;101806.88;6068862;23;19991;-86
2023/01/05 21:05:31;;;;;;;11.25;4.65;;;;;;;15.62;89.52;101801.69;6043332;23;20042;-85
2023/01/05 21:07:58;;;;;;;10.82;4.80;;;;;;;15.59;89.47;101796.44;6090985;23;20011;-84
2023/01/05 21:10:23;;;;;;;13.00;4.80;;;;;;;15.57;89.35;101793.84;6068029;23;20019;-86
2023/01/05 21:12:59;;;;;;;11.55;5.20;;;;;;;15.59;89.41;101796.44;6093688;23;20114;-86
2023/01/05 21:15:54;;;;;;;13.32;4.88;;;;;;;15.61;89.74;101794.75;6045597;23;20007;-86
2023/01/05 21:19:01;;;;;;;10.98;4.60;;;;;;;15.59;89.21;101796.44;6091547;23;20014;-85
2023/01/05 21:21:31;;;;;;;13.52;5.40;;;;;;;15.59;89.33;101801.63;6094814;23;20007;-85
2023/01/05 21:29:46;;;;;;;10.55;4.45;;;;;;;15.55;89.37;101797.28;6182843;23;20008;-84
2023/01/05 21:32:14;;;;;;;11.52;4.43;;;;;;;15.57;89.55;101791.25;6188317;23;19989;-86
2023/01/05 21:35:03;;;;;;;10.38;4.32;;;;;;;15.55;89.52;101795.53;6128616;23;20002;-85
2023/01/05 21:37:33;;;;;;;10.45;4.30;;;;;;;15.55;89.34;101792.09;6092925;23;20070;-86
2023/01/05 21:40:00;;;;;;;10.65;4.70;;;;;;;15.55;89.29;101790.34;6069055;23;20006;-86
2023/01/05 21:43:12;;;;;;;14.50;4.43;;;;;;;15.56;89.60;101794.69;6092087;23;20057;-86
2023/01/05 21:45:42;;;;;;;9.55;4.20;;;;;;;15.55;89.71;101792.09;6093659;23;20018;-86
2023/01/05 22:45:44;;;;;;;9.13;3.33;;;;;;;15.51;89.46;101757.44;6230833;22;20106;-81
2023/01/05 22:48:09;;;;;;;11.90;3.35;;;;;;;15.52;88.29;101760.91;6181578;23;20016;-79
2023/01/05 22:50:35;;;;;;;8.40;3.15;;;;;;;15.50;88.26;101753.09;6199987;23;20066;-80
2023/01/05 22:53:00;;;;;;;8.73;2.85;;;;;;;15.53;88.89;101760.06;6199002;23;20007;-80
2023/01/05 22:55:25;;;;;;;7.80;3.00;;;;;;;15.52;88.25;101759.16;6200819;23;20004;-77
2023/01/05 22:57:51;;;;;;;9.65;3.55;;;;;;;15.52;88.50;101751.38;6217108;23;20380;-77
2023/01/05 23:00:16;;;;;;;12.55;3.47;;;;;;;15.50;89.30;101747.03;6165516;23;20043;-77
2023/01/05 23:02:42;;;;;;;6.88;2.65;;;;;;;15.48;89.52;101747.00;6166089;23;20004;-77
2023/01/05 23:05:08;;;;;;;9.38;3.33;;;;;;;15.48;89.70;101756.50;6190532;23;20008;-77
2023/01/05 23:07:33;;;;;;;9.27;3.05;;;;;;;15.47;89.41;101750.47;6190634;23;20091;-78
2023/01/05 23:09:59;;;;;;;7.03;3.30;;;;;;;15.48;89.70;101736.63;6190224;23;20040;-77
2023/01/05 23:12:27;;;;;;;9.15;3.17;;;;;;;15.50;90.00;101726.28;6155215;23;20008;-83
2023/01/05 23:14:53;;;;;;;9.23;3.28;;;;;;;15.47;89.80;101732.31;6242964;23;20005;-83
2023/01/05 23:17:21;;;;;;;9.05;2.97;;;;;;;15.47;89.97;101715.88;6217691;23;20019;-83
2023/01/05 23:20:01;;;;;;;8.27;3.08;;;;;;;15.47;90.01;101710.69;6193814;23;20008;-82
2023/01/05 23:22:51;;;;;;;7.28;3.00;;;;;;;15.46;89.94;101716.72;6217363;23;20036;-83
2023/01/05 23:25:21;;;;;;;13.43;2.85;;;;;;;15.47;89.84;101727.13;6213915;23;20008;-83
2023/01/05 23:28:08;;;;;;;6.45;2.83;;;;;;;15.47;89.97;101713.28;6192045;23;20008;-83
2023/01/05 23:30:38;;;;;;;8.52;3.00;;;;;;;15.47;90.21;101718.47;6216492;23;20072;-83
2023/01/05 23:33:27;;;;;;;7.43;3.03;;;;;;;15.49;90.32;101724.56;6168254;23;20060;-83
2023/01/05 23:35:57;;;;;;;7.78;2.78;;;;;;;15.48;90.16;101712.41;6216029;23;20000;-83
2023/01/05 23:39:01;;;;;;;7.63;2.75;;;;;;;15.47;90.09;101715.88;6204839;23;20008;-83
2023/01/05 23:41:40;;;;;;;5.18;2.55;;;;;;;15.45;90.02;101704.59;6242072;23;19999;-84
2023/01/05 23:44:14;;;;;;;7.90;2.85;;;;;;;15.46;89.99;101711.53;6199141;23;20009;-83
2023/01/05 23:46:59;;;;;;;6.88;2.70;;;;;;;15.47;90.18;101706.38;6211648;23;20001;-83
2023/01/05 23:49:31;;;;;;;6.75;2.60;;;;;;;15.48;90.26;101704.63;6187077;23;19998;-83
2023/01/05 23:52:17;;;;;;;6.78;2.33;;;;;;;15.45;90.05;101696.81;6151304;23;20006;-83
2023/01/05 23:55:12;;;;;;;8.13;2.95;;;;;;;15.46;90.15;101702.03;6152560;23;20105;-82
2023/01/05 23:58:05;;;;;;;5.72;2.55;;;;;;;15.47;90.58;101697.72;6149211;23;19995;-83
